Time;durP1;ratioP1;P1;durP2;ratioP2;P2;SDS_P1;SDS_P2;PMS_P1;PMS_P2;Temp;Humidity;BMP_temperature;BMP_pressure;BME280_temperature;BME280_humidity;BME280_pressure;Samples;Min_cycle;Max_cycle;Signal;HPM_P1;HPM_P2
2022/03/17 00:03:35;;;;;;;11.93;5.40;;;;;;;6.93;77.76;96509.84;10288337;28;96797;-85
2022/03/17 00:08:38;;;;;;;7.23;4.53;;;;;;;6.77;78.31;96517.97;10286004;28;98166;-85
2022/03/17 00:13:41;;;;;;;7.88;3.65;;;;;;;6.70;78.02;96519.41;10265604;28;96986;-85
2022/03/17 00:18:46;;;;;;;6.43;3.88;;;;;;;6.75;77.99;96518.09;10278547;28;99357;-85
2022/03/17 00:23:51;;;;;;;7.80;4.45;;;;;;;6.84;77.66;96521.75;10288888;28;104023;-85
2022/03/17 00:28:54;;;;;;;6.22;3.92;;;;;;;6.80;77.74;96515.97;10285681;28;100790;-85
2022/03/17 00:33:58;;;;;;;7.35;4.28;;;;;;;6.80;77.57;96515.97;10288094;28;96921;-85
2022/03/17 00:39:02;;;;;;;7.38;4.10;;;;;;;6.78;77.58;96522.22;10274642;28;96910;-85
2022/03/17 00:44:05;;;;;;;6.97;3.90;;;;;;;6.65;77.97;96522.34;10284932;28;97009;-85
2022/03/17 00:49:12;;;;;;;9.57;5.38;;;;;;;6.53;78.43;96523.25;10275105;28;96874;-85
2022/03/17 00:54:15;;;;;;;8.93;5.78;;;;;;;6.46;78.54;96528.09;10288930;28;97485;-85
2022/03/17 00:59:17;;;;;;;10.30;5.82;;;;;;;6.36;78.55;96527.94;10289375;28;96963;-85
2022/03/17 01:04:22;;;;;;;12.15;6.30;;;;;;;6.23;79.17;96529.81;10271696;28;97088;-85
2022/03/17 01:09:25;;;;;;;9.50;6.25;;;;;;;6.14;79.04;96538.25;10272336;28;97842;-85
2022/03/17 01:14:28;;;;;;;9.43;5.70;;;;;;;6.17;79.12;96541.44;10281343;28;97692;-85
2022/03/17 01:19:32;;;;;;;7.82;5.40;;;;;;;6.18;78.78;96537.09;10275806;28;97906;-85
2022/03/17 01:24:35;;;;;;;9.27;6.38;;;;;;;6.12;78.74;96537.53;10286243;28;97804;-85
2022/03/17 01:29:40;;;;;;;10.07;6.00;;;;;;;6.15;78.78;96532.94;10277725;28;97572;-85
2022/03/17 01:34:45;;;;;;;7.90;5.15;;;;;;;6.14;79.18;96533.06;10286691;28;99936;-85
2022/03/17 01:39:48;;;;;;;8.03;4.97;;;;;;;6.15;78.61;96530.34;10287110;28;97678;-85
2022/03/17 01:44:51;;;;;;;13.38;6.70;;;;;;;6.00;79.14;96528.88;10284652;28;97262;-85
2022/03/17 01:49:56;;;;;;;11.23;6.28;;;;;;;5.84;79.53;96516.22;10278392;28;96937;-85
2022/03/17 01:54:59;;;;;;;8.30;5.63;;;;;;;5.80;79.55;96514.78;10274400;28;97345;-85
2022/03/17 02:00:05;;;;;;;8.88;4.93;;;;;;;5.83;79.45;96522.38;10284003;28;98792;-85
2022/03/17 02:05:09;;;;;;;7.32;4.65;;;;;;;5.82;79.20;96518.09;10285091;28;98568;-85
2022/03/17 02:10:12;;;;;;;11.20;5.20;;;;;;;5.81;78.92;96512.09;10285422;28;97096;-85
2022/03/17 02:15:16;;;;;;;10.13;5.17;;;;;;;5.81;78.68;96517.28;10273316;28;96891;-85
2022/03/17 02:20:24;;;;;;;9.18;4.88;;;;;;;5.79;79.12;96528.69;10280411;28;97748;-85
2022/03/17 02:25:35;;;;;;;9.48;5.88;;;;;;;5.80;78.97;96531.16;10267119;28;97736;-85
2022/03/17 02:30:38;;;;;;;10.98;4.85;;;;;;;5.81;78.74;96527.66;10288139;28;97077;-85
2022/03/17 02:35:42;;;;;;;8.18;5.05;;;;;;;5.70;79.16;96525.00;10280397;28;96855;-85
2022/03/17 02:40:50;;;;;;;10.63;5.78;;;;;;;5.64;79.20;96528.03;10277193;28;98553;-85
2022/03/17 02:45:53;;;;;;;13.25;6.40;;;;;;;5.47;79.28;96529.25;10279537;28;96892;-85
2022/03/17 02:50:56;;;;;;;9.85;5.57;;;;;;;5.42;79.47;96526.97;10282767;28;97109;-85
2022/03/17 02:56:00;;;;;;;10.82;5.22;;;;;;;5.28;80.03;96527.13;10286990;28;96911;-85
2022/03/17 03:01:03;;;;;;;9.35;5.38;;;;;;;5.20;80.33;96527.66;10286785;28;97432;-85
2022/03/17 03:06:07;;;;;;;8.10;4.55;;;;;;;5.29;80.05;96536.56;10294142;28;96834;-85
2022/03/17 03:11:11;;;;;;;8.20;4.63;;;;;;;5.28;79.54;96530.53;10286301;28;98398;-85
2022/03/17 03:16:14;;;;;;;12.88;5.43;;;;;;;5.32;79.75;96534.56;10291390;28;97250;-85
2022/03/17 03:21:17;;;;;;;9.07;4.45;;;;;;;5.38;79.46;96529.91;10279631;28;97080;-85
2022/03/17 03:26:21;;;;;;;6.88;4.95;;;;;;;5.32;79.40;96539.75;10283579;28;96915;-85
2022/03/17 03:31:24;;;;;;;8.50;4.80;;;;;;;5.16;79.43;96536.56;10291801;28;96753;-85
2022/03/17 03:41:49;;;;;;;6.95;4.65;;;;;;;5.12;79.64;96546.31;10284456;28;96777;-85
2022/03/17 03:46:52;;;;;;;10.45;4.88;;;;;;;5.02;80.11;96534.94;10286872;28;96916;-85
2022/03/17 03:51:55;;;;;;;9.38;5.15;;;;;;;4.96;79.92;96551.72;10278964;28;96864;-85
2022/03/17 03:56:59;;;;;;;9.98;5.05;;;;;;;5.03;80.03;96551.28;10288720;28;97707;-85
2022/03/17 04:02:05;;;;;;;6.45;4.15;;;;;;;5.05;79.71;96559.81;10267844;28;96754;-85
2022/03/17 04:07:10;;;;;;;6.93;4.28;;;;;;;5.03;79.67;96561.66;10284205;28;96976;-85
2022/03/17 04:12:15;;;;;;;8.25;4.53;;;;;;;5.02;80.16;96563.41;10284858;28;97121;-85
2022/03/17 04:17:18;;;;;;;6.83;4.30;;;;;;;5.03;79.81;96567.69;10280691;28;97121;-85
2022/03/17 04:22:21;;;;;;;8.95;4.38;;;;;;;4.99;79.65;96565.41;10266672;28;97002;-85
2022/03/17 04:27:25;;;;;;;7.63;4.43;;;;;;;4.98;79.57;96566.34;10290545;28;97874;-85
2022/03/17 04:32:28;;;;;;;9.25;3.80;;;;;;;4.93;79.44;96575.25;10274803;28;97753;-85
2022/03/17 04:37:32;;;;;;;7.55;3.97;;;;;;;4.90;79.44;96579.78;10285833;28;97938;-85
2022/03/17 04:42:36;;;;;;;9.88;4.90;;;;;;;4.79;79.89;96580.53;10269868;28;99144;-85
2022/03/17 04:47:39;;;;;;;8.00;4.65;;;;;;;4.66;80.43;96585.69;10275877;28;100288;-85
2022/03/17 04:58:06;;;;;;;7.25;4.25;;;;;;;4.79;80.10;96596.06;10276709;28;97181;-85
2022/03/17 05:03:09;;;;;;;7.40;3.90;;;;;;;4.73;80.11;96596.47;10288943;28;97449;-85
2022/03/17 05:08:12;;;;;;;6.72;4.18;;;;;;;4.69;80.27;96600.19;10289867;28;96900;-85
2022/03/17 05:13:18;;;;;;;8.55;5.15;;;;;;;4.66;80.35;96611.56;10277738;28;97083;-85
2022/03/17 05:18:20;;;;;;;;;;;;;;;4.53;80.28;96610.75;10288398;28;96960;-85
2022/03/17 05:23:23;;;;;;;10.65;5.10;;;;;;;4.43;80.60;96620.03;10278710;28;96799;-85
2022/03/17 05:28:28;;;;;;;8.95;4.97;;;;;;;4.42;81.16;96614.03;10271984;28;100480;-85
2022/03/17 05:33:31;;;;;;;8.25;5.00;;;;;;;4.49;80.88;96624.78;10277610;28;96790;-85
2022/03/17 05:38:33;;;;;;;9.00;5.10;;;;;;;4.56;80.65;96626.88;10279246;28;96875;-86
2022/03/17 05:43:38;;;;;;;10.60;4.70;;;;;;;4.60;80.37;96627.50;10288175;28;98089;-85
2022/03/17 05:48:44;;;;;;;7.67;4.30;;;;;;;4.58;80.12;96631.97;10277926;28;97556;-85
2022/03/17 05:53:47;;;;;;;7.47;4.25;;;;;;;4.53;80.40;96634.03;10273966;28;99464;-85
2022/03/17 05:58:52;;;;;;;9.95;5.75;;;;;;;4.38;80.53;96628.91;10287768;28;97240;-85
2022/03/17 06:03:55;;;;;;;9.65;4.82;;;;;;;4.29;81.13;96631.28;10278471;28;97948;-85
2022/03/17 06:08:58;;;;;;;7.90;4.68;;;;;;;4.36;81.37;96633.34;10282820;28;97677;-85
2022/03/17 06:14:02;;;;;;;8.98;4.53;;;;;;;4.48;81.05;96639.50;10280857;28;98074;-85
2022/03/17 06:19:05;;;;;;;10.23;5.07;;;;;;;4.35;80.92;96638.63;10279015;28;98043;-85
2022/03/17 06:24:08;;;;;;;10.70;5.30;;;;;;;4.37;81.16;96636.78;10273049;28;97065;-85
2022/03/17 06:29:12;;;;;;;10.07;5.13;;;;;;;4.44;81.28;96643.22;10282052;28;98160;-85
2022/03/17 06:34:15;;;;;;;12.63;6.18;;;;;;;4.53;81.07;96642.59;10273604;28;96978;-85
2022/03/17 06:39:18;;;;;;;10.38;5.65;;;;;;;4.71;80.70;96639.72;10284945;28;98598;-85
2022/03/17 06:44:22;;;;;;;8.55;4.78;;;;;;;4.76;80.19;96643.66;10285720;28;97025;-85
2022/03/17 06:49:25;;;;;;;5.45;3.95;;;;;;;4.79;80.08;96645.25;10275311;28;97846;-85
2022/03/17 06:54:27;;;;;;;11.40;5.28;;;;;;;4.96;80.39;96650.13;10274218;28;97822;-84
2022/03/17 06:59:32;;;;;;;6.95;4.72;;;;;;;4.94;80.28;96661.50;10270107;28;97294;-85
2022/03/17 07:04:34;;;;;;;9.15;5.75;;;;;;;4.79;80.69;96668.53;10271885;28;97603;-85
2022/03/17 07:09:41;;;;;;;11.50;6.78;;;;;;;4.68;81.67;96676.16;10278001;28;99196;-85
2022/03/17 07:14:45;;;;;;;14.70;8.43;;;;;;;4.79;81.62;96668.53;10269112;28;100128;-85
2022/03/17 07:24:59;;;;;;;15.52;9.27;;;;;;;5.51;80.26;96680.97;10272613;28;96921;-85
2022/03/17 07:30:04;;;;;;;14.57;8.07;;;;;;;5.70;79.83;96686.56;10277189;28;97502;-85
2022/03/17 07:35:12;;;;;;;12.20;8.23;;;;;;;5.88;79.75;96684.44;10277908;28;99542;-85
2022/03/17 07:40:15;;;;;;;11.75;7.60;;;;;;;6.03;79.17;96697.25;10286576;28;97077;-85
2022/03/17 07:45:20;;;;;;;16.17;9.57;;;;;;;6.16;79.41;96697.22;10286184;28;96900;-85
2022/03/17 07:50:24;;;;;;;13.30;9.55;;;;;;;6.33;79.59;96694.25;10269380;28;97956;-85
2022/03/17 07:55:27;;;;;;;18.05;10.07;;;;;;;6.57;78.94;96701.19;10275787;28;97901;-85
2022/03/17 08:00:31;;;;;;;15.68;9.52;;;;;;;6.76;78.86;96696.28;10285176;28;97131;-85
2022/03/17 08:05:34;;;;;;;17.70;10.53;;;;;;;7.05;78.68;96705.53;10268395;28;96960;-85
2022/03/17 08:10:38;;;;;;;19.15;12.00;;;;;;;7.27;78.27;96702.13;10278910;28;97799;-86
2022/03/17 08:15:43;;;;;;;16.50;11.45;;;;;;;7.45;78.23;96705.13;10277235;28;97845;-85
2022/03/17 08:20:46;;;;;;;19.20;10.85;;;;;;;7.65;77.79;96717.44;10290011;28;96795;-85
2022/03/17 08:25:50;;;;;;;19.42;11.73;;;;;;;7.81;77.34;96724.88;10284422;28;96898;-85
2022/03/17 08:30:54;;;;;;;18.58;11.38;;;;;;;7.97;77.84;96725.31;10278625;28;96899;-86
2022/03/17 08:35:57;;;;;;;21.27;12.37;;;;;;;8.19;77.51;96721.06;10290611;28;96972;-86
2022/03/17 08:41:00;;;;;;;22.90;13.93;;;;;;;8.34;77.08;96732.84;10282549;28;97800;-85
2022/03/17 08:51:25;;;;;;;24.65;15.00;;;;;;;8.79;76.44;96733.66;10280432;28;96949;-85
2022/03/17 08:56:28;;;;;;;25.40;15.02;;;;;;;9.01;76.49;96735.34;10278683;28;96890;-86
2022/03/17 09:01:32;;;;;;;23.67;15.05;;;;;;;9.21;75.99;96737.16;10276706;28;96876;-86
2022/03/17 09:06:36;;;;;;;24.10;15.20;;;;;;;9.37;75.63;96744.53;10264095;28;96960;-86
2022/03/17 09:11:40;;;;;;;24.67;15.65;;;;;;;9.58;76.02;96743.72;10271731;28;97989;-86
2022/03/17 09:16:45;;;;;;;26.95;16.55;;;;;;;9.83;74.87;96748.47;10268184;28;97065;-86
2022/03/17 09:21:49;;;;;;;28.20;17.25;;;;;;;10.04;74.16;96751.06;10271371;28;96782;-86
2022/03/17 09:26:52;;;;;;;26.75;16.30;;;;;;;10.24;73.59;96746.72;10267975;28;96821;-86
2022/03/17 09:31:58;;;;;;;25.95;16.42;;;;;;;10.34;73.84;96746.75;10266179;28;96921;-86
2022/03/17 09:37:01;;;;;;;24.88;15.18;;;;;;;10.60;73.48;96736.63;10270606;28;97654;-86
2022/03/17 09:42:04;;;;;;;25.52;15.80;;;;;;;10.76;72.91;96730.06;10289335;28;96786;-86
2022/03/17 09:47:10;;;;;;;22.95;15.57;;;;;;;10.86;72.66;96730.88;10272407;28;96867;-86
2022/03/17 09:52:15;;;;;;;28.30;16.75;;;;;;;11.11;71.73;96734.72;10258804;28;97637;-86
2022/03/17 09:57:18;;;;;;;23.88;15.85;;;;;;;11.23;71.93;96726.72;10267246;28;97131;-86
2022/03/17 10:02:23;;;;;;;24.35;15.88;;;;;;;11.35;71.83;96730.88;10268935;28;97624;-86
2022/03/17 10:07:26;;;;;;;24.27;15.18;;;;;;;11.52;71.62;96735.38;10262012;28;96851;-86
2022/03/17 10:12:30;;;;;;;24.52;15.85;;;;;;;11.71;71.84;96737.13;10270628;28;97144;-86
2022/03/17 10:17:36;;;;;;;22.00;15.48;;;;;;;11.91;70.92;96743.09;10285382;28;96893;-86
2022/03/17 10:22:42;;;;;;;23.05;15.25;;;;;;;12.09;71.02;96734.47;10262113;28;97156;-86
2022/03/17 10:27:46;;;;;;;26.05;15.95;;;;;;;12.24;69.49;96737.47;10286738;28;96894;-86
2022/03/17 10:33:01;;;;;;;25.77;15.52;;;;;;;12.41;68.50;96744.53;10288188;28;97137;-86
2022/03/17 10:38:10;;;;;;;;;;;;;;;12.68;68.96;96740.22;10283017;28;97355;-86
2022/03/17 10:43:17;;;;;;;25.23;15.30;;;;;;;12.91;68.04;96737.19;10275130;28;100197;-86
2022/03/17 10:48:22;;;;;;;25.17;14.68;;;;;;;13.12;66.68;96732.47;10263449;28;96996;-86
2022/03/17 10:53:28;;;;;;;20.67;14.37;;;;;;;13.38;65.94;96736.94;10269814;28;100104;-86
2022/03/17 10:58:42;;;;;;;18.33;12.80;;;;;;;13.62;66.71;96739.72;10275476;28;97328;-86
2022/03/17 11:04:07;;;;;;;26.00;14.68;;;;;;;13.79;65.24;96729.31;10257444;28;96812;-86
2022/03/17 11:09:10;;;;;;;20.95;12.85;;;;;;;13.99;64.77;96725.47;10272564;28;96873;-86
2022/03/17 11:14:14;;;;;;;22.20;12.70;;;;;;;14.25;64.15;96735.13;10268812;28;97079;-86
2022/03/17 11:19:21;;;;;;;18.10;12.33;;;;;;;14.33;63.53;96719.41;10295239;28;97337;-86
2022/03/17 11:24:24;;;;;;;20.55;12.65;;;;;;;14.34;62.15;96718.41;10266261;28;97209;-86
2022/03/17 11:29:27;;;;;;;20.10;12.10;;;;;;;14.45;62.99;96708.59;10272128;28;97046;-86
2022/03/17 11:34:46;;;;;;;20.10;12.53;;;;;;;14.71;63.03;96704.06;10265201;28;97191;-86
2022/03/17 11:39:50;;;;;;;18.73;12.25;;;;;;;14.92;61.60;96700.13;10288429;28;97106;-86
2022/03/17 11:45:01;;;;;;;23.10;13.07;;;;;;;15.13;62.21;96703.09;10279350;28;97127;-87
2022/03/17 11:50:26;;;;;;;18.65;12.57;;;;;;;15.27;63.04;96704.25;10271427;28;97192;-86
2022/03/17 11:55:49;;;;;;;22.50;12.40;;;;;;;15.44;60.70;96686.63;10275563;28;97294;-86
2022/03/17 12:00:54;;;;;;;17.38;11.40;;;;;;;15.61;61.31;96690.06;10262556;28;97146;-86
2022/03/17 12:06:28;;;;;;;17.52;11.60;;;;;;;15.77;62.27;96683.94;10275491;28;97007;-86
2022/03/17 12:11:33;;;;;;;18.20;11.03;;;;;;;15.87;60.52;96683.72;10166259;28;97043;-86
2022/03/17 12:16:39;;;;;;;16.80;9.38;;;;;;;16.01;59.40;96683.00;10148776;28;97530;-86
2022/03/17 12:22:22;;;;;;;13.63;7.90;;;;;;;16.29;57.83;96676.47;10136745;28;97878;-86
2022/03/17 12:27:30;;;;;;;13.48;7.70;;;;;;;16.32;58.11;96671.69;10143392;28;97620;-86
2022/03/17 12:32:35;;;;;;;13.20;7.90;;;;;;;16.48;57.16;96659.41;10146863;28;97143;-86
2022/03/17 12:37:40;;;;;;;13.73;7.50;;;;;;;16.57;56.06;96658.34;10163618;28;97211;-87
2022/03/17 12:42:46;;;;;;;14.77;7.53;;;;;;;16.81;55.38;96644.19;10158058;28;97078;-87
2022/03/17 12:47:56;;;;;;;14.68;7.63;;;;;;;16.74;55.29;96633.47;10273785;28;98941;-86
2022/03/17 12:52:59;;;;;;;12.85;7.88;;;;;;;16.74;54.61;96627.41;10265512;28;97232;-86
2022/03/17 12:58:05;;;;;;;15.15;8.13;;;;;;;16.78;53.91;96626.09;10262798;28;96912;-87
2022/03/17 13:03:08;;;;;;;15.98;8.50;;;;;;;16.56;54.53;96625.06;10274001;28;97013;-87
2022/03/17 13:08:12;;;;;;;11.63;8.23;;;;;;;16.89;54.50;96612.47;10274821;28;96807;-87
2022/03/17 13:18:40;;;;;;;17.08;8.45;;;;;;;17.16;52.79;96604.94;10288588;28;98976;-87
2022/03/17 13:23:43;;;;;;;13.02;7.68;;;;;;;17.13;52.83;96606.16;10265355;28;96959;-87
2022/03/17 13:29:01;;;;;;;15.65;9.15;;;;;;;17.35;52.96;96604.44;10279421;28;98295;-87
2022/03/17 13:34:05;;;;;;;14.68;9.68;;;;;;;17.66;53.42;96599.97;10263152;28;97722;-87
2022/03/17 13:39:11;;;;;;;18.95;9.05;;;;;;;17.67;53.25;96599.78;10266473;28;96733;-87
2022/03/17 13:44:15;;;;;;;15.55;8.65;;;;;;;17.86;52.22;96590.50;10260860;28;97264;-87
2022/03/17 13:49:26;;;;;;;12.60;7.82;;;;;;;18.09;52.28;96590.34;10260932;28;97688;-87
2022/03/17 13:54:30;;;;;;;14.18;7.95;;;;;;;18.07;51.41;96587.09;10288966;28;97140;-87
2022/03/17 13:59:36;;;;;;;11.45;6.70;;;;;;;18.06;51.26;96574.88;10267475;28;96902;-87
2022/03/17 14:04:39;;;;;;;12.60;7.10;;;;;;;17.99;50.51;96578.44;10261933;28;96935;-87
2022/03/17 14:09:43;;;;;;;13.80;6.33;;;;;;;18.04;50.69;96582.16;10262081;28;97153;-87
2022/03/17 14:14:47;;;;;;;12.73;6.30;;;;;;;17.88;50.13;96580.56;10280957;28;98742;-87
2022/03/17 14:19:50;;;;;;;11.30;6.15;;;;;;;17.87;50.72;96586.03;10273733;28;97145;-87
2022/03/17 14:24:53;;;;;;;11.85;5.25;;;;;;;17.84;51.05;96587.22;10262005;28;96812;-87
2022/03/17 14:29:57;;;;;;;13.38;5.75;;;;;;;17.94;51.57;96581.63;10272606;28;97186;-87
2022/03/17 14:35:00;;;;;;;11.30;5.47;;;;;;;18.07;50.46;96586.28;10289738;28;96986;-87
2022/03/17 14:40:03;;;;;;;15.05;5.50;;;;;;;18.13;50.57;96591.63;10284305;28;96950;-87
2022/03/17 14:45:08;;;;;;;12.43;5.78;;;;;;;18.10;49.57;96588.56;10278695;28;96776;-87
2022/03/17 14:50:11;;;;;;;13.35;5.70;;;;;;;17.89;49.56;96581.38;10271414;28;98006;-87
2022/03/17 14:55:15;;;;;;;15.63;6.50;;;;;;;17.70;49.70;96580.09;10277527;28;97094;-87
2022/03/17 15:00:20;;;;;;;10.68;6.18;;;;;;;17.57;49.41;96596.59;10296250;28;96978;-87
2022/03/17 15:05:24;;;;;;;13.65;5.90;;;;;;;17.51;49.85;96597.34;10301563;28;97346;-87
2022/03/17 15:10:26;;;;;;;10.90;5.90;;;;;;;17.46;49.86;96594.44;10288541;28;97484;-87
2022/03/17 15:15:31;;;;;;;12.80;5.75;;;;;;;17.34;50.67;96592.22;10299847;28;98398;-87
2022/03/17 15:20:34;;;;;;;14.15;6.10;;;;;;;17.46;49.89;96597.06;10300500;28;99638;-87
2022/03/17 15:25:37;;;;;;;18.55;5.93;;;;;;;17.47;49.29;96590.78;10300466;28;96953;-86
2022/03/17 15:30:42;;;;;;;13.45;6.72;;;;;;;17.46;49.91;96594.44;10283872;28;97068;-87
2022/03/17 15:35:46;;;;;;;14.18;6.65;;;;;;;17.43;50.48;96598.25;10276781;28;96805;-87
2022/03/17 15:40:50;;;;;;;14.88;7.03;;;;;;;17.51;50.53;96590.25;10275197;28;96785;-87
2022/03/17 15:45:54;;;;;;;18.63;7.07;;;;;;;17.57;50.54;96581.56;10271495;28;96849;-87
2022/03/17 15:50:57;;;;;;;13.75;6.90;;;;;;;17.55;50.25;96585.41;10293235;28;96996;-87
2022/03/17 15:56:00;;;;;;;16.23;7.80;;;;;;;17.45;50.49;96601.53;10284663;28;96950;-87
2022/03/17 16:01:06;;;;;;;15.43;7.78;;;;;;;17.31;51.01;96597.06;10294480;28;96949;-87
2022/03/17 16:06:10;;;;;;;14.95;7.78;;;;;;;17.25;51.44;96609.16;10287662;28;98630;-87
2022/03/17 16:16:35;;;;;;;15.95;7.60;;;;;;;17.26;51.42;96609.97;10292217;28;96900;-87
2022/03/17 16:21:38;;;;;;;14.55;7.07;;;;;;;17.25;51.62;96625.00;10292958;28;96914;-87
2022/03/17 16:26:41;;;;;;;14.07;7.47;;;;;;;17.23;51.63;96619.09;10280447;28;97041;-87
2022/03/17 16:31:46;;;;;;;12.23;7.03;;;;;;;17.09;51.30;96635.72;10289650;28;97991;-87
2022/03/17 16:36:49;;;;;;;13.60;7.82;;;;;;;16.80;51.11;96637.28;10267477;28;97116;-87
2022/03/17 16:41:56;;;;;;;16.67;7.75;;;;;;;16.54;51.46;96637.63;10280633;28;96965;-87
2022/03/17 16:47:01;;;;;;;11.48;6.35;;;;;;;16.50;51.59;96642.41;10267061;28;97080;-87
2022/03/17 16:52:08;;;;;;;13.93;7.07;;;;;;;16.25;51.00;96639.09;10274472;28;96949;-87
2022/03/17 16:57:12;;;;;;;10.88;6.55;;;;;;;15.96;52.34;96650.28;10277422;28;97274;-87
2022/03/17 17:02:17;;;;;;;12.73;6.60;;;;;;;15.70;52.62;96661.88;10267866;28;97345;-87
2022/03/17 17:07:21;;;;;;;14.90;7.05;;;;;;;15.54;52.72;96654.81;10265614;28;97608;-87
2022/03/17 17:12:24;;;;;;;16.98;6.93;;;;;;;15.34;53.23;96657.03;10261833;28;97586;-87
2022/03/17 17:17:30;;;;;;;16.83;7.43;;;;;;;15.16;53.66;96653.75;10269222;28;98483;-86
2022/03/17 17:30:40;;;;;;;16.85;7.57;;;;;;;14.96;53.57;96659.34;10282616;28;98622;-85
2022/03/17 17:33:19;;;;;;;13.13;6.95;;;;;;;14.66;53.84;96674.81;10164007;28;97101;-86
2022/03/17 17:38:23;;;;;;;15.43;6.45;;;;;;;14.50;54.04;96678.19;10146994;28;97061;-85
2022/03/17 17:43:27;;;;;;;14.97;9.23;;;;;;;14.37;54.71;96681.31;10166393;28;97667;-85
2022/03/17 17:48:32;;;;;;;14.17;7.23;;;;;;;14.24;54.75;96691.41;10162609;28;97037;-85
2022/03/17 17:53:36;;;;;;;14.00;8.40;;;;;;;14.18;55.13;96702.56;10164260;28;99068;-85
2022/03/17 17:58:40;;;;;;;14.23;6.85;;;;;;;14.12;54.39;96711.06;10152928;28;98353;-85
2022/03/17 18:03:44;;;;;;;16.90;7.35;;;;;;;14.04;54.88;96717.13;10156510;28;98338;-85
2022/03/17 18:08:47;;;;;;;13.95;7.35;;;;;;;13.96;55.18;96710.03;10210350;28;97023;-84
2022/03/17 18:13:51;;;;;;;13.77;7.10;;;;;;;13.89;55.20;96716.88;10287033;28;96849;-85
2022/03/17 18:18:55;;;;;;;15.55;7.28;;;;;;;13.81;55.17;96724.72;10283488;28;97150;-85
2022/03/17 18:23:59;;;;;;;21.75;8.02;;;;;;;13.78;55.22;96728.50;10279981;28;98531;-86
2022/03/17 18:29:03;;;;;;;18.30;7.65;;;;;;;13.72;55.66;96744.03;10278068;28;97635;-86
2022/03/17 18:34:07;;;;;;;15.20;7.88;;;;;;;13.61;55.96;96737.25;10284332;28;97007;-86
2022/03/17 18:39:11;;;;;;;13.73;7.22;;;;;;;13.62;55.87;96750.22;10280267;28;99573;-86
2022/03/17 18:44:14;;;;;;;15.32;7.40;;;;;;;13.58;55.51;96759.38;10280332;28;96901;-86
2022/03/17 18:49:18;;;;;;;15.13;7.53;;;;;;;13.53;55.86;96766.06;10283268;28;97019;-86
2022/03/17 18:54:23;;;;;;;15.83;7.57;;;;;;;13.49;56.24;96770.78;10277878;28;98076;-86
2022/03/17 18:59:26;;;;;;;12.52;7.93;;;;;;;13.44;56.43;96779.13;10280194;28;98911;-86
2022/03/17 19:04:31;;;;;;;16.45;8.57;;;;;;;13.35;57.40;96781.84;10278750;28;97346;-86
2022/03/17 19:09:34;;;;;;;12.70;8.27;;;;;;;13.27;57.44;96784.41;10282848;28;96964;-86
2022/03/17 19:14:37;;;;;;;14.68;8.55;;;;;;;13.27;57.00;96798.31;10284781;28;97256;-86
2022/03/17 19:19:42;;;;;;;14.75;8.07;;;;;;;13.17;57.92;96803.66;10276747;28;97069;-86
2022/03/17 19:24:45;;;;;;;16.52;8.88;;;;;;;13.12;57.72;96805.91;10270305;28;97260;-86
2022/03/17 19:29:48;;;;;;;17.38;9.50;;;;;;;13.12;58.36;96811.16;10267978;28;97140;-86
2022/03/17 19:34:53;;;;;;;16.90;9.27;;;;;;;13.11;58.37;96820.00;10282805;28;97999;-86
2022/03/17 19:39:55;;;;;;;16.45;9.68;;;;;;;13.07;57.65;96817.84;10266877;28;98510;-86
2022/03/17 19:44:59;;;;;;;15.27;9.85;;;;;;;13.05;57.74;96836.34;10274738;28;97368;-86
2022/03/17 19:55:27;;;;;;;15.57;10.63;;;;;;;13.06;57.40;96832.72;10281731;28;97039;-86
2022/03/17 20:00:29;;;;;;;;;;;;;;;12.99;57.69;96842.97;10273510;28;97120;-87
2022/03/17 20:05:34;;;;;;;19.55;11.68;;;;;;;12.96;58.10;96858.19;10272812;28;98767;-86
2022/03/17 20:15:57;;;;;;;17.85;12.35;;;;;;;12.87;58.35;96865.97;10273571;28;97832;-86
2022/03/17 20:21:02;;;;;;;19.35;12.18;;;;;;;12.81;58.39;96861.28;10285276;28;101172;-86
2022/03/17 20:26:06;;;;;;;18.70;13.07;;;;;;;12.81;57.97;96865.72;10270502;28;99917;-86
2022/03/17 20:31:11;;;;;;;19.37;13.07;;;;;;;12.71;58.41;96865.75;10276616;28;97299;-86
2022/03/17 20:36:16;;;;;;;21.63;15.05;;;;;;;12.67;58.92;96880.13;10263705;28;96864;-86
2022/03/17 20:41:19;;;;;;;21.50;15.07;;;;;;;12.61;59.48;96872.84;10282967;28;96866;-86
2022/03/17 20:46:22;;;;;;;21.02;13.65;;;;;;;12.58;59.12;96884.44;10272145;28;101049;-86
2022/03/17 20:51:26;;;;;;;22.48;15.40;;;;;;;12.52;59.80;96889.44;10283080;28;96885;-86
2022/03/17 20:56:29;;;;;;;21.80;15.23;;;;;;;12.53;59.10;96905.03;10270299;28;96906;-86
2022/03/17 21:01:32;;;;;;;25.73;14.88;;;;;;;12.49;59.58;96907.09;10273035;28;96874;-87
2022/03/17 21:06:36;;;;;;;24.17;15.93;;;;;;;12.48;59.66;96908.06;10280407;28;97941;-86
2022/03/17 21:11:39;;;;;;;26.70;16.97;;;;;;;12.43;60.41;96918.13;10271431;28;97228;-86
2022/03/17 21:16:42;;;;;;;26.00;17.27;;;;;;;12.41;60.27;96924.50;10279132;28;97414;-86
2022/03/17 21:21:46;;;;;;;24.85;17.17;;;;;;;12.41;60.33;96927.13;10269347;28;97013;-86
2022/03/17 21:26:51;;;;;;;27.13;17.70;;;;;;;12.30;60.72;96933.34;10289436;28;97753;-86
2022/03/17 21:31:56;;;;;;;29.75;19.38;;;;;;;12.28;60.86;96949.22;10279361;28;105316;-86
2022/03/17 21:37:00;;;;;;;34.80;23.17;;;;;;;12.22;61.69;96943.72;10285701;28;96896;-86
2022/03/17 21:42:03;;;;;;;36.33;23.07;;;;;;;12.19;61.40;96947.44;10291444;28;96998;-87
2022/03/17 21:47:10;;;;;;;30.77;21.83;;;;;;;12.17;61.75;96961.66;10281009;28;99353;-86
2022/03/17 21:52:15;;;;;;;29.33;21.43;;;;;;;12.15;61.89;96953.91;10275943;28;99516;-86
2022/03/17 21:57:21;;;;;;;31.00;22.53;;;;;;;12.02;62.13;96962.06;10279006;28;97633;-86
2022/03/17 22:02:23;;;;;;;34.03;22.83;;;;;;;11.96;62.85;96975.72;10275698;28;97197;-86
2022/03/17 22:07:28;;;;;;;33.08;21.70;;;;;;;11.93;62.48;96982.03;10283553;28;97535;-86
2022/03/17 22:12:31;;;;;;;32.38;22.27;;;;;;;11.92;62.54;96985.63;10285194;28;99439;-86
2022/03/17 22:17:34;;;;;;;31.60;21.98;;;;;;;11.94;62.66;96995.97;10275137;28;98056;-86
2022/03/17 22:22:40;;;;;;;32.85;22.15;;;;;;;11.77;62.76;96984.38;10283067;28;97290;-86
2022/03/17 22:27:43;;;;;;;32.85;21.05;;;;;;;11.74;62.72;96993.34;10275708;28;98449;-85
2022/03/17 22:32:46;;;;;;;30.67;21.20;;;;;;;11.68;63.19;97004.34;10282423;28;97017;-86
2022/03/17 22:37:50;;;;;;;33.53;22.20;;;;;;;11.62;63.30;96999.66;10284614;28;96833;-86
2022/03/17 22:42:53;;;;;;;34.27;22.63;;;;;;;11.49;63.23;97004.34;10274334;28;97281;-86
2022/03/17 22:47:56;;;;;;;36.45;22.40;;;;;;;11.40;63.35;96999.88;10267841;28;97391;-86
2022/03/17 22:53:01;;;;;;;31.35;21.13;;;;;;;11.41;63.36;97010.22;10269454;28;97014;-86
2022/03/17 22:58:04;;;;;;;34.95;23.10;;;;;;;11.32;63.74;97009.22;10272477;28;99164;-86
2022/03/17 23:03:07;;;;;;;32.67;22.10;;;;;;;11.30;63.52;97018.16;10282646;28;98527;-86
2022/03/17 23:08:11;;;;;;;38.80;24.23;;;;;;;11.21;63.80;97011.94;10288692;28;96904;-86
2022/03/17 23:13:15;;;;;;;33.05;23.02;;;;;;;11.16;63.90;97022.78;10275226;28;100004;-86
2022/03/17 23:18:19;;;;;;;33.45;22.42;;;;;;;11.16;63.78;97027.19;10276791;28;98658;-86
2022/03/17 23:23:23;;;;;;;33.05;22.52;;;;;;;11.17;63.83;97028.84;10278658;28;97154;-86
2022/03/17 23:28:26;;;;;;;36.13;23.37;;;;;;;11.13;63.87;97025.66;10280478;28;97292;-86
2022/03/17 23:33:30;;;;;;;37.95;23.05;;;;;;;11.07;63.97;97017.50;10276998;28;97737;-86
2022/03/17 23:38:39;;;;;;;37.42;24.60;;;;;;;11.01;64.41;97020.66;10289786;28;99406;-86
2022/03/17 23:43:42;;;;;;;36.08;24.52;;;;;;;10.96;64.39;97027.13;10285048;28;98537;-86
2022/03/17 23:48:45;;;;;;;35.63;25.80;;;;;;;10.86;64.92;97021.00;10290640;28;97086;-86
2022/03/17 23:53:49;;;;;;;40.85;25.80;;;;;;;10.79;64.93;97022.47;10286632;28;97296;-86
2022/03/17 23:58:52;;;;;;;42.70;26.73;;;;;;;10.77;64.97;97024.38;10285071;28;98123;-86
